sensor_id;sensor_type;location;lat;lon;timestamp;P1;durP1;ratioP1;P2;durP2;ratioP2
801;SDS011;383;48.766;9.270;2023-03-03T00:00:00;78.43;;;30.27;;
801;SDS011;383;48.766;9.270;2023-03-03T00:02:28;81.93;;;32.45;;
801;SDS011;383;48.766;9.270;2023-03-03T00:04:55;67.43;;;28.00;;
801;SDS011;383;48.766;9.270;2023-03-03T00:07:21;66.30;;;27.33;;
801;SDS011;383;48.766;9.270;2023-03-03T00:09:49;72.75;;;29.58;;
801;SDS011;383;48.766;9.270;2023-03-03T00:12:18;67.70;;;27.92;;
801;SDS011;383;48.766;9.270;2023-03-03T00:14:48;79.43;;;27.48;;
801;SDS011;383;48.766;9.270;2023-03-03T00:17:17;67.18;;;27.02;;
801;SDS011;383;48.766;9.270;2023-03-03T00:19:48;71.63;;;27.08;;
801;SDS011;383;48.766;9.270;2023-03-03T00:22:27;78.40;;;29.30;;
801;SDS011;383;48.766;9.270;2023-03-03T00:24:58;80.50;;;28.83;;
801;SDS011;383;48.766;9.270;2023-03-03T00:27:27;79.03;;;27.77;;
801;SDS011;383;48.766;9.270;2023-03-03T00:29:56;80.78;;;28.38;;
801;SDS011;383;48.766;9.270;2023-03-03T00:32:25;68.30;;;26.08;;
801;SDS011;383;48.766;9.270;2023-03-03T00:34:53;74.78;;;27.58;;
801;SDS011;383;48.766;9.270;2023-03-03T00:37:28;70.57;;;27.75;;
801;SDS011;383;48.766;9.270;2023-03-03T00:40:00;62.10;;;27.45;;
801;SDS011;383;48.766;9.270;2023-03-03T00:42:48;66.13;;;25.88;;
801;SDS011;383;48.766;9.270;2023-03-03T00:45:21;76.50;;;28.63;;
801;SDS011;383;48.766;9.270;2023-03-03T00:47:52;64.20;;;26.90;;
801;SDS011;383;48.766;9.270;2023-03-03T00:50:26;72.32;;;28.23;;
801;SDS011;383;48.766;9.270;2023-03-03T00:52:58;75.25;;;31.52;;
801;SDS011;383;48.766;9.270;2023-03-03T00:55:32;78.80;;;30.55;;
801;SDS011;383;48.766;9.270;2023-03-03T00:57:59;82.30;;;31.65;;
801;SDS011;383;48.766;9.270;2023-03-03T01:00:26;88.40;;;31.90;;
801;SDS011;383;48.766;9.270;2023-03-03T01:02:52;80.05;;;32.28;;
801;SDS011;383;48.766;9.270;2023-03-03T01:05:21;68.80;;;27.63;;
801;SDS011;383;48.766;9.270;2023-03-03T01:07:56;72.28;;;30.60;;
801;SDS011;383;48.766;9.270;2023-03-03T01:10:23;70.65;;;28.00;;
801;SDS011;383;48.766;9.270;2023-03-03T01:12:51;63.67;;;26.35;;
801;SDS011;383;48.766;9.270;2023-03-03T01:15:18;84.88;;;28.58;;
801;SDS011;383;48.766;9.270;2023-03-03T01:17:45;66.18;;;29.77;;
801;SDS011;383;48.766;9.270;2023-03-03T01:20:12;66.75;;;27.17;;
801;SDS011;383;48.766;9.270;2023-03-03T01:26:11;82.47;;;27.73;;
801;SDS011;383;48.766;9.270;2023-03-03T01:28:45;69.50;;;27.42;;
801;SDS011;383;48.766;9.270;2023-03-03T01:31:25;81.15;;;30.95;;
801;SDS011;383;48.766;9.270;2023-03-03T01:33:54;70.45;;;25.60;;
801;SDS011;383;48.766;9.270;2023-03-03T01:36:25;73.10;;;25.05;;
801;SDS011;383;48.766;9.270;2023-03-03T01:38:56;72.93;;;29.38;;
801;SDS011;383;48.766;9.270;2023-03-03T01:41:25;81.30;;;28.73;;
801;SDS011;383;48.766;9.270;2023-03-03T01:43:55;66.95;;;25.52;;
801;SDS011;383;48.766;9.270;2023-03-03T01:46:43;69.68;;;26.10;;
801;SDS011;383;48.766;9.270;2023-03-03T01:49:17;72.25;;;31.10;;
801;SDS011;383;48.766;9.270;2023-03-03T01:51:48;72.78;;;28.27;;
801;SDS011;383;48.766;9.270;2023-03-03T01:54:19;80.40;;;28.33;;
801;SDS011;383;48.766;9.270;2023-03-03T01:56:49;78.68;;;28.90;;
801;SDS011;383;48.766;9.270;2023-03-03T01:59:20;85.70;;;28.98;;
801;SDS011;383;48.766;9.270;2023-03-03T02:02:08;69.60;;;29.38;;
801;SDS011;383;48.766;9.270;2023-03-03T02:04:37;77.57;;;29.63;;
801;SDS011;383;48.766;9.270;2023-03-03T02:07:05;76.63;;;31.00;;
801;SDS011;383;48.766;9.270;2023-03-03T02:09:36;78.05;;;29.50;;
801;SDS011;383;48.766;9.270;2023-03-03T02:12:10;82.10;;;30.92;;
801;SDS011;383;48.766;9.270;2023-03-03T02:14:40;73.93;;;28.85;;
801;SDS011;383;48.766;9.270;2023-03-03T02:17:07;93.65;;;32.15;;
801;SDS011;383;48.766;9.270;2023-03-03T02:19:35;77.63;;;29.17;;
801;SDS011;383;48.766;9.270;2023-03-03T02:22:07;73.65;;;26.27;;
801;SDS011;383;48.766;9.270;2023-03-03T02:24:36;76.63;;;27.75;;
801;SDS011;383;48.766;9.270;2023-03-03T02:27:09;65.70;;;26.80;;
801;SDS011;383;48.766;9.270;2023-03-03T02:29:38;83.45;;;28.52;;
801;SDS011;383;48.766;9.270;2023-03-03T02:32:04;76.95;;;28.15;;
801;SDS011;383;48.766;9.270;2023-03-03T02:34:41;91.72;;;30.80;;
801;SDS011;383;48.766;9.270;2023-03-03T02:37:13;91.30;;;31.15;;
801;SDS011;383;48.766;9.270;2023-03-03T02:39:40;90.80;;;29.98;;
801;SDS011;383;48.766;9.270;2023-03-03T02:42:08;78.75;;;31.02;;
801;SDS011;383;48.766;9.270;2023-03-03T02:44:39;76.78;;;27.83;;
801;SDS011;383;48.766;9.270;2023-03-03T02:47:06;79.00;;;28.27;;
801;SDS011;383;48.766;9.270;2023-03-03T02:49:34;88.03;;;31.52;;
801;SDS011;383;48.766;9.270;2023-03-03T02:52:03;82.65;;;33.15;;
801;SDS011;383;48.766;9.270;2023-03-03T02:54:33;82.68;;;32.05;;
801;SDS011;383;48.766;9.270;2023-03-03T02:57:00;84.28;;;30.90;;
801;SDS011;383;48.766;9.270;2023-03-03T02:59:29;73.30;;;30.30;;
801;SDS011;383;48.766;9.270;2023-03-03T03:01:56;87.95;;;32.95;;
801;SDS011;383;48.766;9.270;2023-03-03T03:04:24;97.35;;;36.35;;
801;SDS011;383;48.766;9.270;2023-03-03T03:06:52;95.25;;;35.03;;
801;SDS011;383;48.766;9.270;2023-03-03T03:09:20;96.90;;;38.00;;
801;SDS011;383;48.766;9.270;2023-03-03T03:11:48;92.32;;;36.88;;
801;SDS011;383;48.766;9.270;2023-03-03T03:14:15;86.88;;;33.05;;
801;SDS011;383;48.766;9.270;2023-03-03T03:16:43;77.75;;;31.40;;
801;SDS011;383;48.766;9.270;2023-03-03T03:19:09;109.82;;;37.40;;
801;SDS011;383;48.766;9.270;2023-03-03T03:21:36;93.63;;;37.13;;
801;SDS011;383;48.766;9.270;2023-03-03T03:24:03;92.03;;;35.42;;
801;SDS011;383;48.766;9.270;2023-03-03T03:26:30;87.15;;;31.45;;
801;SDS011;383;48.766;9.270;2023-03-03T03:28:57;83.88;;;33.03;;
801;SDS011;383;48.766;9.270;2023-03-03T03:31:24;82.05;;;33.72;;
801;SDS011;383;48.766;9.270;2023-03-03T03:33:52;86.25;;;33.65;;
801;SDS011;383;48.766;9.270;2023-03-03T03:36:19;69.95;;;30.65;;
801;SDS011;383;48.766;9.270;2023-03-03T03:38:46;87.20;;;31.10;;
801;SDS011;383;48.766;9.270;2023-03-03T03:41:12;94.63;;;30.38;;
801;SDS011;383;48.766;9.270;2023-03-03T03:43:39;82.22;;;28.90;;
801;SDS011;383;48.766;9.270;2023-03-03T03:46:06;78.35;;;29.98;;
801;SDS011;383;48.766;9.270;2023-03-03T03:48:33;86.85;;;29.50;;
801;SDS011;383;48.766;9.270;2023-03-03T03:51:02;71.82;;;29.08;;
801;SDS011;383;48.766;9.270;2023-03-03T03:53:29;74.80;;;29.30;;
801;SDS011;383;48.766;9.270;2023-03-03T03:55:56;73.45;;;28.52;;
801;SDS011;383;48.766;9.270;2023-03-03T03:58:23;87.43;;;31.52;;
801;SDS011;383;48.766;9.270;2023-03-03T04:00:49;87.80;;;30.67;;
801;SDS011;383;48.766;9.270;2023-03-03T04:03:16;77.63;;;30.13;;
801;SDS011;383;48.766;9.270;2023-03-03T04:05:43;77.28;;;29.33;;
801;SDS011;383;48.766;9.270;2023-03-03T04:08:11;81.45;;;31.20;;
801;SDS011;383;48.766;9.270;2023-03-03T04:10:37;71.07;;;28.45;;
801;SDS011;383;48.766;9.270;2023-03-03T04:13:04;93.85;;;32.67;;
801;SDS011;383;48.766;9.270;2023-03-03T04:15:31;81.75;;;30.45;;
801;SDS011;383;48.766;9.270;2023-03-03T04:17:58;77.75;;;30.60;;
801;SDS011;383;48.766;9.270;2023-03-03T04:20:25;80.38;;;30.38;;
801;SDS011;383;48.766;9.270;2023-03-03T04:22:51;79.32;;;31.55;;
801;SDS011;383;48.766;9.270;2023-03-03T04:25:20;70.63;;;29.45;;
801;SDS011;383;48.766;9.270;2023-03-03T04:27:47;71.45;;;30.33;;
801;SDS011;383;48.766;9.270;2023-03-03T04:30:14;79.63;;;29.95;;
801;SDS011;383;48.766;9.270;2023-03-03T04:32:41;82.90;;;30.67;;
801;SDS011;383;48.766;9.270;2023-03-03T04:35:08;81.03;;;29.83;;
801;SDS011;383;48.766;9.270;2023-03-03T04:37:36;84.28;;;32.75;;
801;SDS011;383;48.766;9.270;2023-03-03T04:40:03;85.70;;;30.27;;
801;SDS011;383;48.766;9.270;2023-03-03T04:42:33;73.32;;;30.60;;
801;SDS011;383;48.766;9.270;2023-03-03T04:45:00;75.18;;;30.58;;
801;SDS011;383;48.766;9.270;2023-03-03T04:47:26;88.75;;;33.83;;
801;SDS011;383;48.766;9.270;2023-03-03T04:49:53;69.63;;;32.60;;
801;SDS011;383;48.766;9.270;2023-03-03T04:52:20;89.03;;;33.28;;
801;SDS011;383;48.766;9.270;2023-03-03T04:54:46;77.80;;;31.75;;
801;SDS011;383;48.766;9.270;2023-03-03T04:57:13;78.88;;;30.10;;
801;SDS011;383;48.766;9.270;2023-03-03T04:59:41;83.53;;;32.80;;
801;SDS011;383;48.766;9.270;2023-03-03T05:02:08;85.13;;;30.85;;
801;SDS011;383;48.766;9.270;2023-03-03T05:04:35;79.30;;;29.75;;
801;SDS011;383;48.766;9.270;2023-03-03T05:07:01;83.78;;;33.95;;
801;SDS011;383;48.766;9.270;2023-03-03T05:09:28;74.65;;;31.90;;
801;SDS011;383;48.766;9.270;2023-03-03T05:11:55;75.50;;;31.38;;
801;SDS011;383;48.766;9.270;2023-03-03T05:14:22;78.10;;;31.05;;
801;SDS011;383;48.766;9.270;2023-03-03T05:16:50;79.65;;;32.38;;
801;SDS011;383;48.766;9.270;2023-03-03T05:19:16;88.70;;;32.88;;
801;SDS011;383;48.766;9.270;2023-03-03T05:21:43;83.40;;;31.02;;
801;SDS011;383;48.766;9.270;2023-03-03T05:24:10;81.97;;;34.45;;
801;SDS011;383;48.766;9.270;2023-03-03T05:26:38;81.25;;;29.42;;
801;SDS011;383;48.766;9.270;2023-03-03T05:29:05;94.30;;;34.45;;
801;SDS011;383;48.766;9.270;2023-03-03T05:31:32;81.72;;;31.92;;
801;SDS011;383;48.766;9.270;2023-03-03T05:34:00;84.43;;;32.63;;
801;SDS011;383;48.766;9.270;2023-03-03T05:36:27;82.80;;;34.38;;
801;SDS011;383;48.766;9.270;2023-03-03T05:38:54;85.13;;;32.20;;
801;SDS011;383;48.766;9.270;2023-03-03T05:41:21;88.22;;;34.53;;
801;SDS011;383;48.766;9.270;2023-03-03T05:43:47;78.00;;;31.92;;
801;SDS011;383;48.766;9.270;2023-03-03T05:46:14;84.78;;;33.20;;
801;SDS011;383;48.766;9.270;2023-03-03T05:48:42;88.00;;;33.60;;
801;SDS011;383;48.766;9.270;2023-03-03T05:51:10;81.78;;;32.53;;
801;SDS011;383;48.766;9.270;2023-03-03T05:53:37;76.07;;;33.10;;
801;SDS011;383;48.766;9.270;2023-03-03T05:56:04;87.43;;;32.92;;
801;SDS011;383;48.766;9.270;2023-03-03T05:58:31;83.60;;;32.88;;
801;SDS011;383;48.766;9.270;2023-03-03T06:00:58;84.70;;;32.13;;
801;SDS011;383;48.766;9.270;2023-03-03T06:03:24;73.28;;;30.10;;
801;SDS011;383;48.766;9.270;2023-03-03T06:05:51;87.00;;;33.40;;
801;SDS011;383;48.766;9.270;2023-03-03T06:08:19;85.00;;;31.70;;
801;SDS011;383;48.766;9.270;2023-03-03T06:10:46;80.63;;;31.88;;
801;SDS011;383;48.766;9.270;2023-03-03T06:13:13;80.40;;;32.55;;
801;SDS011;383;48.766;9.270;2023-03-03T06:15:39;74.90;;;28.92;;
801;SDS011;383;48.766;9.270;2023-03-03T06:18:06;70.38;;;29.70;;
801;SDS011;383;48.766;9.270;2023-03-03T06:20:33;80.30;;;29.00;;
801;SDS011;383;48.766;9.270;2023-03-03T06:23:00;84.15;;;30.80;;
801;SDS011;383;48.766;9.270;2023-03-03T06:25:28;78.38;;;30.60;;
801;SDS011;383;48.766;9.270;2023-03-03T06:27:55;72.70;;;30.05;;
801;SDS011;383;48.766;9.270;2023-03-03T06:30:22;87.05;;;31.50;;
801;SDS011;383;48.766;9.270;2023-03-03T06:32:50;82.40;;;30.83;;
801;SDS011;383;48.766;9.270;2023-03-03T06:35:17;72.32;;;30.13;;
801;SDS011;383;48.766;9.270;2023-03-03T06:37:44;84.45;;;31.55;;
801;SDS011;383;48.766;9.270;2023-03-03T06:40:11;75.03;;;31.58;;
801;SDS011;383;48.766;9.270;2023-03-03T06:42:40;74.03;;;30.80;;
801;SDS011;383;48.766;9.270;2023-03-03T06:45:07;74.75;;;30.67;;
801;SDS011;383;48.766;9.270;2023-03-03T06:47:34;83.85;;;31.42;;
801;SDS011;383;48.766;9.270;2023-03-03T06:50:01;75.90;;;30.38;;
801;SDS011;383;48.766;9.270;2023-03-03T06:52:27;80.00;;;30.98;;
801;SDS011;383;48.766;9.270;2023-03-03T06:54:54;74.97;;;30.70;;
801;SDS011;383;48.766;9.270;2023-03-03T06:57:25;68.88;;;27.95;;
801;SDS011;383;48.766;9.270;2023-03-03T06:59:55;89.75;;;31.88;;
801;SDS011;383;48.766;9.270;2023-03-03T07:02:25;82.15;;;30.05;;
801;SDS011;383;48.766;9.270;2023-03-03T07:04:52;65.40;;;27.48;;
801;SDS011;383;48.766;9.270;2023-03-03T07:07:22;76.45;;;30.40;;
801;SDS011;383;48.766;9.270;2023-03-03T07:09:51;85.45;;;30.38;;
801;SDS011;383;48.766;9.270;2023-03-03T07:12:20;73.45;;;28.88;;
801;SDS011;383;48.766;9.270;2023-03-03T07:14:49;71.38;;;27.80;;
801;SDS011;383;48.766;9.270;2023-03-03T07:17:22;82.07;;;27.88;;
801;SDS011;383;48.766;9.270;2023-03-03T07:19:50;68.20;;;27.75;;
801;SDS011;383;48.766;9.270;2023-03-03T07:22:19;74.10;;;27.65;;
801;SDS011;383;48.766;9.270;2023-03-03T07:24:47;68.53;;;27.42;;
801;SDS011;383;48.766;9.270;2023-03-03T07:27:16;69.13;;;30.02;;
801;SDS011;383;48.766;9.270;2023-03-03T07:29:48;65.78;;;27.90;;
801;SDS011;383;48.766;9.270;2023-03-03T07:32:37;77.07;;;28.65;;
801;SDS011;383;48.766;9.270;2023-03-03T07:35:07;66.50;;;28.52;;
801;SDS011;383;48.766;9.270;2023-03-03T07:37:51;64.32;;;27.73;;
801;SDS011;383;48.766;9.270;2023-03-03T07:40:26;70.88;;;29.27;;
801;SDS011;383;48.766;9.270;2023-03-03T07:42:59;60.42;;;25.67;;
801;SDS011;383;48.766;9.270;2023-03-03T07:45:28;61.90;;;26.17;;
801;SDS011;383;48.766;9.270;2023-03-03T07:48:00;66.53;;;26.17;;
801;SDS011;383;48.766;9.270;2023-03-03T07:50:34;57.97;;;24.80;;
801;SDS011;383;48.766;9.270;2023-03-03T07:53:01;67.40;;;26.45;;
801;SDS011;383;48.766;9.270;2023-03-03T07:55:32;58.88;;;24.00;;
801;SDS011;383;48.766;9.270;2023-03-03T07:58:12;61.33;;;24.42;;
801;SDS011;383;48.766;9.270;2023-03-03T08:03:52;57.22;;;26.00;;
801;SDS011;383;48.766;9.270;2023-03-03T08:06:26;53.45;;;27.42;;
801;SDS011;383;48.766;9.270;2023-03-03T08:09:03;64.05;;;23.90;;
801;SDS011;383;48.766;9.270;2023-03-03T08:12:01;55.72;;;23.20;;
801;SDS011;383;48.766;9.270;2023-03-03T08:14:56;57.63;;;24.27;;
801;SDS011;383;48.766;9.270;2023-03-03T08:17:34;63.45;;;27.90;;
801;SDS011;383;48.766;9.270;2023-03-03T08:20:05;63.75;;;25.50;;
801;SDS011;383;48.766;9.270;2023-03-03T08:22:49;51.78;;;23.05;;
801;SDS011;383;48.766;9.270;2023-03-03T08:25:16;60.17;;;23.77;;
801;SDS011;383;48.766;9.270;2023-03-03T08:27:43;66.75;;;25.98;;
801;SDS011;383;48.766;9.270;2023-03-03T08:30:10;60.00;;;24.52;;
801;SDS011;383;48.766;9.270;2023-03-03T08:32:37;61.72;;;25.17;;
801;SDS011;383;48.766;9.270;2023-03-03T08:35:05;64.13;;;25.75;;
801;SDS011;383;48.766;9.270;2023-03-03T08:37:33;60.65;;;23.77;;
801;SDS011;383;48.766;9.270;2023-03-03T08:40:00;60.97;;;25.90;;
801;SDS011;383;48.766;9.270;2023-03-03T08:42:27;67.60;;;25.02;;
801;SDS011;383;48.766;9.270;2023-03-03T08:44:54;58.78;;;24.88;;
801;SDS011;383;48.766;9.270;2023-03-03T08:47:21;57.65;;;24.90;;
801;SDS011;383;48.766;9.270;2023-03-03T08:49:47;56.10;;;24.15;;
801;SDS011;383;48.766;9.270;2023-03-03T08:52:16;58.65;;;25.75;;
801;SDS011;383;48.766;9.270;2023-03-03T08:54:43;55.33;;;22.60;;
801;SDS011;383;48.766;9.270;2023-03-03T08:57:09;62.30;;;26.02;;
801;SDS011;383;48.766;9.270;2023-03-03T08:59:37;55.72;;;24.38;;
801;SDS011;383;48.766;9.270;2023-03-03T09:02:04;56.63;;;26.00;;
801;SDS011;383;48.766;9.270;2023-03-03T09:04:31;59.10;;;24.08;;
801;SDS011;383;48.766;9.270;2023-03-03T09:06:58;59.55;;;28.45;;
801;SDS011;383;48.766;9.270;2023-03-03T09:09:26;64.30;;;27.25;;
801;SDS011;383;48.766;9.270;2023-03-03T09:11:53;58.05;;;24.40;;
801;SDS011;383;48.766;9.270;2023-03-03T09:14:24;68.00;;;25.30;;
801;SDS011;383;48.766;9.270;2023-03-03T09:16:54;51.60;;;23.23;;
801;SDS011;383;48.766;9.270;2023-03-03T09:19:23;61.35;;;25.52;;
801;SDS011;383;48.766;9.270;2023-03-03T09:21:51;62.60;;;25.50;;
801;SDS011;383;48.766;9.270;2023-03-03T09:24:21;61.63;;;23.75;;
801;SDS011;383;48.766;9.270;2023-03-03T09:26:51;56.95;;;24.25;;
801;SDS011;383;48.766;9.270;2023-03-03T09:29:22;74.78;;;24.65;;
801;SDS011;383;48.766;9.270;2023-03-03T09:31:52;55.65;;;22.73;;
801;SDS011;383;48.766;9.270;2023-03-03T09:34:20;59.83;;;23.70;;
801;SDS011;383;48.766;9.270;2023-03-03T09:36:48;58.60;;;22.98;;
801;SDS011;383;48.766;9.270;2023-03-03T09:39:16;63.00;;;25.52;;
801;SDS011;383;48.766;9.270;2023-03-03T09:47:55;50.17;;;23.67;;
801;SDS011;383;48.766;9.270;2023-03-03T09:50:28;59.13;;;25.27;;
801;SDS011;383;48.766;9.270;2023-03-03T09:53:00;63.85;;;25.80;;
801;SDS011;383;48.766;9.270;2023-03-03T09:55:33;58.95;;;25.63;;
801;SDS011;383;48.766;9.270;2023-03-03T09:58:14;50.53;;;23.15;;
801;SDS011;383;48.766;9.270;2023-03-03T10:00:54;55.03;;;25.40;;
801;SDS011;383;48.766;9.270;2023-03-03T10:06:30;60.28;;;25.98;;
801;SDS011;383;48.766;9.270;2023-03-03T10:09:07;57.45;;;23.73;;
801;SDS011;383;48.766;9.270;2023-03-03T10:11:53;60.42;;;25.88;;
801;SDS011;383;48.766;9.270;2023-03-03T10:14:32;56.60;;;24.50;;
801;SDS011;383;48.766;9.270;2023-03-03T10:17:20;61.35;;;25.95;;
801;SDS011;383;48.766;9.270;2023-03-03T10:20:02;60.38;;;24.73;;
801;SDS011;383;48.766;9.270;2023-03-03T10:22:38;53.97;;;24.83;;
801;SDS011;383;48.766;9.270;2023-03-03T10:25:18;49.42;;;26.55;;
801;SDS011;383;48.766;9.270;2023-03-03T10:27:56;74.55;;;25.25;;
801;SDS011;383;48.766;9.270;2023-03-03T10:30:36;52.60;;;24.25;;
801;SDS011;383;48.766;9.270;2023-03-03T10:33:14;56.35;;;25.30;;
801;SDS011;383;48.766;9.270;2023-03-03T10:35:48;60.70;;;24.83;;
801;SDS011;383;48.766;9.270;2023-03-03T10:38:22;61.65;;;27.15;;
801;SDS011;383;48.766;9.270;2023-03-03T10:40:51;61.72;;;24.63;;
801;SDS011;383;48.766;9.270;2023-03-03T10:46:13;64.03;;;27.50;;
801;SDS011;383;48.766;9.270;2023-03-03T10:51:26;61.30;;;26.13;;
801;SDS011;383;48.766;9.270;2023-03-03T10:53:57;65.90;;;27.25;;
801;SDS011;383;48.766;9.270;2023-03-03T10:56:32;62.90;;;26.40;;
801;SDS011;383;48.766;9.270;2023-03-03T10:59:02;55.28;;;24.85;;
801;SDS011;383;48.766;9.270;2023-03-03T11:01:35;54.78;;;24.75;;
801;SDS011;383;48.766;9.270;2023-03-03T11:06:54;53.55;;;23.80;;
801;SDS011;383;48.766;9.270;2023-03-03T11:09:33;58.00;;;26.20;;
801;SDS011;383;48.766;9.270;2023-03-03T11:12:05;53.38;;;26.90;;
801;SDS011;383;48.766;9.270;2023-03-03T11:14:40;54.35;;;24.05;;
801;SDS011;383;48.766;9.270;2023-03-03T11:17:14;49.92;;;24.23;;
801;SDS011;383;48.766;9.270;2023-03-03T11:19:54;54.72;;;25.65;;
801;SDS011;383;48.766;9.270;2023-03-03T11:22:27;53.58;;;25.60;;
801;SDS011;383;48.766;9.270;2023-03-03T11:25:00;68.57;;;27.58;;
801;SDS011;383;48.766;9.270;2023-03-03T11:27:32;54.72;;;24.80;;
801;SDS011;383;48.766;9.270;2023-03-03T11:30:03;51.38;;;24.30;;
801;SDS011;383;48.766;9.270;2023-03-03T11:32:37;57.08;;;26.95;;
801;SDS011;383;48.766;9.270;2023-03-03T11:37:53;66.88;;;31.17;;
801;SDS011;383;48.766;9.270;2023-03-03T11:40:23;59.65;;;27.05;;
801;SDS011;383;48.766;9.270;2023-03-03T11:42:55;63.53;;;29.33;;
801;SDS011;383;48.766;9.270;2023-03-03T11:45:26;56.65;;;26.85;;
801;SDS011;383;48.766;9.270;2023-03-03T11:47:57;55.58;;;26.42;;
801;SDS011;383;48.766;9.270;2023-03-03T11:50:27;57.05;;;25.38;;
801;SDS011;383;48.766;9.270;2023-03-03T11:52:59;50.70;;;23.98;;
801;SDS011;383;48.766;9.270;2023-03-03T11:55:35;54.10;;;26.02;;
801;SDS011;383;48.766;9.270;2023-03-03T11:58:06;48.88;;;25.45;;
801;SDS011;383;48.766;9.270;2023-03-03T12:00:36;55.97;;;24.13;;
801;SDS011;383;48.766;9.270;2023-03-03T12:03:18;70.72;;;26.60;;
801;SDS011;383;48.766;9.270;2023-03-03T12:08:35;50.35;;;22.83;;
801;SDS011;383;48.766;9.270;2023-03-03T12:11:05;54.92;;;24.67;;
801;SDS011;383;48.766;9.270;2023-03-03T12:13:37;51.33;;;22.95;;
801;SDS011;383;48.766;9.270;2023-03-03T12:16:08;52.75;;;24.30;;
801;SDS011;383;48.766;9.270;2023-03-03T12:18:43;55.25;;;24.73;;
801;SDS011;383;48.766;9.270;2023-03-03T12:21:15;59.05;;;26.63;;
801;SDS011;383;48.766;9.270;2023-03-03T12:23:51;57.88;;;24.70;;
801;SDS011;383;48.766;9.270;2023-03-03T12:26:24;51.63;;;22.65;;
801;SDS011;383;48.766;9.270;2023-03-03T12:28:54;49.90;;;23.40;;
801;SDS011;383;48.766;9.270;2023-03-03T12:31:28;52.38;;;25.42;;
801;SDS011;383;48.766;9.270;2023-03-03T12:34:01;45.38;;;22.77;;
801;SDS011;383;48.766;9.270;2023-03-03T12:36:46;50.67;;;22.27;;
801;SDS011;383;48.766;9.270;2023-03-03T12:39:19;51.33;;;24.15;;
801;SDS011;383;48.766;9.270;2023-03-03T12:41:51;43.92;;;22.35;;
801;SDS011;383;48.766;9.270;2023-03-03T12:44:23;45.92;;;22.42;;
801;SDS011;383;48.766;9.270;2023-03-03T12:46:53;47.08;;;21.83;;
801;SDS011;383;48.766;9.270;2023-03-03T12:49:25;50.92;;;22.63;;
801;SDS011;383;48.766;9.270;2023-03-03T12:52:02;47.38;;;22.55;;
801;SDS011;383;48.766;9.270;2023-03-03T12:57:17;48.17;;;22.35;;
801;SDS011;383;48.766;9.270;2023-03-03T12:59:48;51.28;;;23.08;;
801;SDS011;383;48.766;9.270;2023-03-03T13:02:28;48.70;;;22.73;;
801;SDS011;383;48.766;9.270;2023-03-03T13:05:01;44.67;;;20.85;;
801;SDS011;383;48.766;9.270;2023-03-03T13:07:33;52.17;;;23.58;;
801;SDS011;383;48.766;9.270;2023-03-03T13:10:05;47.33;;;22.73;;
801;SDS011;383;48.766;9.270;2023-03-03T13:12:36;40.03;;;20.05;;
801;SDS011;383;48.766;9.270;2023-03-03T13:15:09;53.08;;;22.05;;
801;SDS011;383;48.766;9.270;2023-03-03T13:17:41;44.05;;;22.08;;
801;SDS011;383;48.766;9.270;2023-03-03T13:20:16;53.55;;;22.00;;
801;SDS011;383;48.766;9.270;2023-03-03T13:33:09;49.70;;;22.45;;
801;SDS011;383;48.766;9.270;2023-03-03T13:35:40;41.00;;;19.98;;
801;SDS011;383;48.766;9.270;2023-03-03T13:38:11;44.85;;;21.90;;
801;SDS011;383;48.766;9.270;2023-03-03T13:40:40;46.40;;;20.98;;
801;SDS011;383;48.766;9.270;2023-03-03T13:43:09;43.03;;;20.88;;
801;SDS011;383;48.766;9.270;2023-03-03T13:45:40;48.58;;;20.20;;
801;SDS011;383;48.766;9.270;2023-03-03T13:48:14;51.25;;;22.67;;
801;SDS011;383;48.766;9.270;2023-03-03T13:50:50;50.03;;;20.77;;
801;SDS011;383;48.766;9.270;2023-03-03T13:53:25;44.38;;;21.70;;
801;SDS011;383;48.766;9.270;2023-03-03T13:55:56;50.40;;;21.40;;
801;SDS011;383;48.766;9.270;2023-03-03T13:58:27;50.25;;;21.60;;
801;SDS011;383;48.766;9.270;2023-03-03T14:01:01;51.30;;;22.65;;
801;SDS011;383;48.766;9.270;2023-03-03T14:03:41;46.33;;;21.70;;
801;SDS011;383;48.766;9.270;2023-03-03T14:06:14;44.95;;;21.73;;
801;SDS011;383;48.766;9.270;2023-03-03T14:08:46;46.45;;;22.08;;
801;SDS011;383;48.766;9.270;2023-03-03T14:11:18;43.72;;;21.60;;
801;SDS011;383;48.766;9.270;2023-03-03T14:13:51;39.25;;;19.98;;
801;SDS011;383;48.766;9.270;2023-03-03T14:16:21;49.38;;;23.38;;
801;SDS011;383;48.766;9.270;2023-03-03T14:18:56;46.53;;;22.58;;
801;SDS011;383;48.766;9.270;2023-03-03T14:21:27;47.38;;;19.60;;
801;SDS011;383;48.766;9.270;2023-03-03T14:23:56;46.80;;;21.30;;
801;SDS011;383;48.766;9.270;2023-03-03T14:26:25;48.10;;;23.50;;
801;SDS011;383;48.766;9.270;2023-03-03T14:29:02;48.45;;;23.02;;
801;SDS011;383;48.766;9.270;2023-03-03T14:31:37;48.25;;;22.00;;
801;SDS011;383;48.766;9.270;2023-03-03T14:34:12;43.20;;;20.70;;
801;SDS011;383;48.766;9.270;2023-03-03T14:36:42;49.72;;;24.35;;
801;SDS011;383;48.766;9.270;2023-03-03T14:39:23;49.50;;;24.35;;
801;SDS011;383;48.766;9.270;2023-03-03T14:41:53;48.40;;;23.80;;
801;SDS011;383;48.766;9.270;2023-03-03T14:44:25;49.72;;;22.75;;
801;SDS011;383;48.766;9.270;2023-03-03T14:49:44;54.22;;;24.50;;
801;SDS011;383;48.766;9.270;2023-03-03T14:52:19;53.47;;;22.55;;
801;SDS011;383;48.766;9.270;2023-03-03T14:54:48;56.20;;;23.33;;
801;SDS011;383;48.766;9.270;2023-03-03T14:57:15;43.35;;;21.65;;
801;SDS011;383;48.766;9.270;2023-03-03T14:59:53;52.67;;;23.08;;
801;SDS011;383;48.766;9.270;2023-03-03T15:02:26;46.10;;;22.95;;
801;SDS011;383;48.766;9.270;2023-03-03T15:05:09;46.90;;;22.88;;
801;SDS011;383;48.766;9.270;2023-03-03T15:07:38;51.53;;;23.13;;
801;SDS011;383;48.766;9.270;2023-03-03T15:10:06;43.33;;;21.55;;
801;SDS011;383;48.766;9.270;2023-03-03T15:12:36;45.40;;;20.73;;
801;SDS011;383;48.766;9.270;2023-03-03T15:15:06;47.67;;;20.80;;
801;SDS011;383;48.766;9.270;2023-03-03T15:17:34;50.95;;;21.67;;
801;SDS011;383;48.766;9.270;2023-03-03T15:20:04;55.15;;;22.77;;
801;SDS011;383;48.766;9.270;2023-03-03T15:22:45;51.58;;;22.95;;
801;SDS011;383;48.766;9.270;2023-03-03T15:25:15;52.88;;;24.17;;
801;SDS011;383;48.766;9.270;2023-03-03T15:27:45;47.75;;;22.67;;
801;SDS011;383;48.766;9.270;2023-03-03T15:30:20;48.13;;;22.48;;
801;SDS011;383;48.766;9.270;2023-03-03T15:32:50;57.55;;;25.25;;
801;SDS011;383;48.766;9.270;2023-03-03T15:35:23;49.58;;;22.05;;
801;SDS011;383;48.766;9.270;2023-03-03T15:37:54;53.20;;;22.25;;
801;SDS011;383;48.766;9.270;2023-03-03T15:40:23;47.20;;;22.23;;
801;SDS011;383;48.766;9.270;2023-03-03T15:42:53;49.72;;;22.90;;
801;SDS011;383;48.766;9.270;2023-03-03T15:45:23;48.80;;;23.83;;
801;SDS011;383;48.766;9.270;2023-03-03T15:48:05;57.33;;;22.98;;
801;SDS011;383;48.766;9.270;2023-03-03T15:50:40;44.00;;;22.40;;
801;SDS011;383;48.766;9.270;2023-03-03T15:53:14;49.53;;;23.05;;
801;SDS011;383;48.766;9.270;2023-03-03T15:55:46;56.95;;;24.00;;
801;SDS011;383;48.766;9.270;2023-03-03T15:58:27;51.72;;;24.90;;
801;SDS011;383;48.766;9.270;2023-03-03T16:01:00;54.63;;;25.08;;
801;SDS011;383;48.766;9.270;2023-03-03T16:03:34;49.97;;;23.58;;
801;SDS011;383;48.766;9.270;2023-03-03T16:06:04;52.13;;;24.40;;
801;SDS011;383;48.766;9.270;2023-03-03T16:08:38;55.85;;;24.38;;
801;SDS011;383;48.766;9.270;2023-03-03T16:11:07;52.97;;;24.55;;
801;SDS011;383;48.766;9.270;2023-03-03T16:13:45;47.05;;;23.13;;
801;SDS011;383;48.766;9.270;2023-03-03T16:16:19;50.72;;;23.85;;
801;SDS011;383;48.766;9.270;2023-03-03T16:18:52;51.50;;;23.17;;
801;SDS011;383;48.766;9.270;2023-03-03T16:21:23;53.38;;;22.80;;